Bookmark and Share
Track history (hours):
 

Grand Holiday

Last reported at 2014-Apr-17 03:34 UTC. Time now 2014-Apr-17 03:53 UTC.
Position N 43°54' E 009°45'.

Length 222 m; draft 7.7 m.

Type: Passenger vessel. MMSI: 255803790.

NotesDate/timePositionNaut miles runAvg speedWind from/ knotsBaromVisibWave heightAir tempDewpointWater temp
2014-Apr-17 03:34N 43°54' E 009°45'1717.0
2014-Apr-17 02:34N 43°59' E 009°23'1717.4
2014-Apr-17 01:33N 44°07' E 009°01'1717.2
2014-Apr-17 00:34N 44°12' E 008°39'2 1.8
2014-Apr-16 23:33N 44°14' E 008°38'6 5.9
2014-Apr-16 22:33N 44°18' E 008°32'2 1.8
2014-Apr-16 21:31N 44°19' E 008°29'0 0.0
2014-Apr-16 20:31N 44°19' E 008°29'0 0.0
2014-Apr-16 19:30N 44°19' E 008°29'0 0.0
2014-Apr-16 18:33N 44°19' E 008°29'0 0.0
2014-Apr-16 17:29N 44°19' E 008°29'0 0.0
2014-Apr-16 16:32N 44°19' E 008°29'0 0.0
2014-Apr-16 15:29N 44°19' E 008°29'0 0.0
2014-Apr-16 14:31N 44°19' E 008°29'0 0.0
2014-Apr-16 13:28N 44°19' E 008°29'0 0.0
2014-Apr-16 12:33N 44°19' E 008°29'0 0.0
2014-Apr-16 11:30N 44°19' E 008°29'0 0.0
2014-Apr-16 10:32N 44°19' E 008°29'0 0.0
2014-Apr-16 09:32N 44°19' E 008°29'0 0.0
2014-Apr-16 08:32N 44°19' E 008°29'0 0.0
2014-Apr-16 07:25N 44°19' E 008°29'0 0.0
2014-Apr-16 06:31N 44°19' E 008°29'0 0.0
2014-Apr-16 05:24N 44°19' E 008°29'0 0.1
2014-Apr-16 04:33N 44°19' E 008°29'5 5.1
2014-Apr-16 03:33N 44°14' E 008°33'1313.3
2014-Apr-16 02:33N 44°01' E 008°37'1313.2
2014-Apr-16 01:33N 43°48' E 008°35'1312.8
2014-Apr-16 00:33N 43°37' E 008°25'1414.5
2014-Apr-15 23:33N 43°32' E 008°06'2014.8
2014-Apr-15 22:12N 43°33' E 007°39'1015.0
2014-Apr-15 21:34N 43°37' E 007°27'7 3.6
2014-Apr-15 19:30N 43°42' E 007°19'0 0.1
2014-Apr-15 18:29N 43°42' E 007°19'0 0.1
2014-Apr-15 17:29N 43°42' E 007°19'0 0.1
2014-Apr-15 16:29N 43°42' E 007°19'0 0.0
2014-Apr-15 15:28N 43°42' E 007°19'0 0.1
2014-Apr-15 14:28N 43°42' E 007°19'0 0.0
2014-Apr-15 11:33N 43°42' E 007°19'0 0.0
2014-Apr-15 08:32N 43°42' E 007°19'0 0.0
2014-Apr-15 06:31N 43°42' E 007°19'0 0.0
2014-Apr-15 05:31N 43°42' E 007°19'6 3.1
2014-Apr-15 03:34N 43°36' E 007°18'1312.9
2014-Apr-15 02:33N 43°23' E 007°19'1313.0
2014-Apr-15 01:33N 43°12' E 007°09'1313.5
2014-Apr-15 00:33N 43°01' E 006°59'1413.8
2014-Apr-14 23:34N 42°50' E 006°47'1211.7
2014-Apr-14 22:34N 42°45' E 006°33'1413.8
2014-Apr-14 21:33N 42°45' E 006°14'1413.7
2014-Apr-14 20:34N 42°47' E 005°56'1413.7
2014-Apr-14 19:34N 42°51' E 005°38'1313.4
2014-Apr-14 18:34N 42°56' E 005°21'1212.0
2014-Apr-14 17:33N 43°06' E 005°11'1313.1
2014-Apr-14 16:34N 43°18' E 005°14'5 0.4
2014-Apr-14 05:33N 43°21' E 005°20'10013.4
2014-Apr-13 22:09N 42°04' E 003°54'813.9
2014-Apr-13 21:33N 41°57' E 003°47'1313.5
2014-Apr-13 20:33N 41°47' E 003°35'2813.3
2014-Apr-13 18:26N 41°33' E 003°03'1314.2
2014-Apr-13 17:33N 41°28' E 002°47'1414.0
2014-Apr-13 16:33N 41°21' E 002°31'1513.5
2014-Apr-13 15:24N 41°16' E 002°12'6 6.1
2014-Apr-13 14:30N 41°21' E 002°11'0 0.0
2014-Apr-13 13:28N 41°21' E 002°11'0 0.0
2014-Apr-13 12:29N 41°21' E 002°11'0 0.0
2014-Apr-13 11:33N 41°21' E 002°11'0 0.0
2014-Apr-13 07:25N 41°21' E 002°11'0 0.0
2014-Apr-13 06:31N 41°21' E 002°11'3 2.9
2014-Apr-13 05:33N 41°18' E 002°10'1010.2
2014-Apr-13 04:33N 41°13' E 002°22'1212.4
2014-Apr-13 03:33N 41°07' E 002°37'1312.5
2014-Apr-13 02:33N 41°01' E 002°51'1212.4
2014-Apr-13 01:33N 40°55' E 003°05'1212.5
2014-Apr-13 00:33N 40°49' E 003°20'1313.0
2014-Apr-12 23:32N 40°43' E 003°35'2512.6
2014-Apr-12 21:32N 40°31' E 004°05'1212.5
2014-Apr-12 20:33N 40°33' E 004°21'3112.7
2014-Apr-12 18:04N 40°39' E 005°01'813.9
2014-Apr-12 17:28N 40°41' E 005°12'1213.3
2014-Apr-12 16:32N 40°44' E 005°28'1512.9
2014-Apr-12 15:23N 40°47' E 005°47'1113.4
2014-Apr-12 14:32N 40°49' E 006°02'1312.7
2014-Apr-12 13:32N 40°52' E 006°18'1313.3
2014-Apr-12 12:33N 40°55' E 006°35'1413.1
2014-Apr-12 11:29N 40°58' E 006°53'1513.0
2014-Apr-12 10:19N 41°01' E 007°13'155 4.7
2014-Apr-11 01:33N 42°04' E 010°22'1515.1
2014-Apr-11 00:33N 42°08' E 010°02'1515.4
2014-Apr-10 23:33N 42°22' E 009°54'1615.9
2014-Apr-10 22:31N 42°37' E 009°47'1515.5
2014-Apr-10 21:31N 42°52' E 009°40'1414.9
2014-Apr-10 20:33N 43°06' E 009°36'1615.9
2014-Apr-10 19:33N 43°21' E 009°41'1616.1
2014-Apr-10 18:33N 43°37' E 009°46'1716.8
2014-Apr-10 17:33N 43°53' E 009°51'1313.1
2014-Apr-10 16:33N 44°06' E 009°50'0 0.1
2014-Apr-10 15:31N 44°06' E 009°50'0 0.0
2014-Apr-10 14:31N 44°06' E 009°50'0 0.0
2014-Apr-10 13:34N 44°06' E 009°50'0 0.0
2014-Apr-10 12:33N 44°06' E 009°50'0 0.0
2014-Apr-10 11:33N 44°06' E 009°50'0 0.0
2014-Apr-10 10:32N 44°06' E 009°50'0 0.0
2014-Apr-10 09:32N 44°06' E 009°50'0 0.0
2014-Apr-10 08:31N 44°06' E 009°50'0 0.0
2014-Apr-10 07:31N 44°06' E 009°50'0 0.0
2014-Apr-10 06:33N 44°06' E 009°50'0 0.0
2014-Apr-10 05:33N 44°06' E 009°50'3 2.7
2014-Apr-10 04:33N 44°04' E 009°51'8 7.9
2014-Apr-10 03:33N 43°56' E 009°53'1212.2
2014-Apr-10 02:33N 43°54' E 009°36'1313.0
2014-Apr-10 01:33N 43°56' E 009°18'1313.3
2014-Apr-10 00:33N 43°59' E 009°00'1313.2
2014-Apr-09 23:33N 44°04' E 008°43'1414.3
2014-Apr-09 22:33N 44°16' E 008°33'4 3.8
2014-Apr-09 21:31N 44°19' E 008°29'0 0.0
2014-Apr-09 20:31N 44°19' E 008°29'0 0.0
2014-Apr-09 19:33N 44°19' E 008°29'0 0.0
2014-Apr-09 18:33N 44°19' E 008°29'0 0.0
2014-Apr-09 17:30N 44°19' E 008°29'0 0.0
2014-Apr-09 16:23N 44°19' E 008°29'0 0.0
2014-Apr-09 14:28N 44°19' E 008°29'0 0.0
2014-Apr-09 13:10N 44°19' E 008°29'0 0.0
2014-Apr-09 12:33N 44°19' E 008°29'0 0.0
2014-Apr-09 11:27N 44°19' E 008°29'0 0.0
2014-Apr-09 10:33N 44°19' E 008°29'0 0.0
2014-Apr-09 09:32N 44°19' E 008°29'0 0.0
2014-Apr-09 08:26N 44°19' E 008°29'0 0.0
2014-Apr-09 07:19N 44°19' E 008°29'0 0.0
2014-Apr-09 06:19N 44°19' E 008°29'0 0.0
2014-Apr-09 05:30N 44°19' E 008°29'0 0.0
2014-Apr-09 04:33N 44°19' E 008°29'5 4.8
2014-Apr-09 03:33N 44°14' E 008°33'1111.2
2014-Apr-09 02:33N 44°04' E 008°36'1111.5
2014-Apr-09 01:33N 43°52' E 008°36'1212.3
2014-Apr-09 00:33N 43°40' E 008°32'4912.3
2014-Apr-08 20:33N 43°38' E 007°24'5 5.5
2014-Apr-08 19:33N 43°42' E 007°19'0 0.0
2014-Apr-08 18:33N 43°42' E 007°19'0 0.1
2014-Apr-08 17:32N 43°42' E 007°19'0 0.1
2014-Apr-08 16:32N 43°42' E 007°19'0 0.0
2014-Apr-08 15:33N 43°42' E 007°19'0 0.0
2014-Apr-08 14:32N 43°42' E 007°19'0 0.0
2014-Apr-08 13:33N 43°42' E 007°19'0 0.1
2014-Apr-08 12:33N 43°42' E 007°19'0 0.1
2014-Apr-08 11:33N 43°42' E 007°19'0 0.0
2014-Apr-08 10:33N 43°42' E 007°19'0 0.0
2014-Apr-08 09:33N 43°42' E 007°19'0 0.0
2014-Apr-08 08:32N 43°42' E 007°19'0 0.1
2014-Apr-08 07:33N 43°42' E 007°19'0 0.0
2014-Apr-08 06:29N 43°42' E 007°19'0 0.0
2014-Apr-08 05:33N 43°42' E 007°19'5 5.2
2014-Apr-08 04:33N 43°37' E 007°20'1211.6
2014-Apr-08 03:33N 43°26' E 007°26'1414.2
2014-Apr-08 02:33N 43°15' E 007°14'1414.4
2014-Apr-08 01:33N 43°03' E 007°02'1413.8
2014-Apr-08 00:33N 42°52' E 006°50'3913.1
2014-Apr-07 21:33N 42°47' E 005°57'1514.3
2014-Apr-07 20:30N 42°51' E 005°38'1514.0
2014-Apr-07 19:27N 42°57' E 005°19'2312.0
2014-Apr-07 17:33N 43°19' E 005°14'4 1.9
2014-Apr-07 15:10N 43°21' E 005°20'0 0.0
2014-Apr-07 06:32N 43°21' E 005°20'7 6.6
2014-Apr-07 05:28N 43°17' E 005°12'1212.5
2014-Apr-07 04:32N 43°07' E 005°04'  

Dump ship's entire track history

sailing weather and tide predictions

Grand Holiday — CQNH — position and weather